sensor_id;sensor_type;location;lat;lon;timestamp;pressure;altitude;pressure_sealevel;temperature;humidity
4410;BME280;2218;51.408;7.208;2022-12-07T00:01:43;99762.44;;;18.59;38.11
4410;BME280;2218;51.408;7.208;2022-12-07T00:04:14;99766.97;;;18.57;37.99
4410;BME280;2218;51.408;7.208;2022-12-07T00:06:44;99765.19;;;18.57;37.88
4410;BME280;2218;51.408;7.208;2022-12-07T00:09:14;99767.91;;;18.56;37.89
4410;BME280;2218;51.408;7.208;2022-12-07T00:11:41;99766.25;;;18.55;38.09
4410;BME280;2218;51.408;7.208;2022-12-07T00:14:12;99759.25;;;18.54;38.19
4410;BME280;2218;51.408;7.208;2022-12-07T00:16:39;99761.06;;;18.53;38.27
4410;BME280;2218;51.408;7.208;2022-12-07T00:19:07;99764.63;;;18.52;38.12
4410;BME280;2218;51.408;7.208;2022-12-07T00:21:36;99763.78;;;18.52;37.85
4410;BME280;2218;51.408;7.208;2022-12-07T00:24:06;99766.44;;;18.52;38.43
4410;BME280;2218;51.408;7.208;2022-12-07T00:26:35;99765.59;;;18.51;38.41
4410;BME280;2218;51.408;7.208;2022-12-07T00:29:06;99763.97;;;18.49;38.11
4410;BME280;2218;51.408;7.208;2022-12-07T00:31:36;99759.56;;;18.49;38.30
4410;BME280;2218;51.408;7.208;2022-12-07T00:34:04;99756.94;;;18.49;38.06
4410;BME280;2218;51.408;7.208;2022-12-07T00:36:32;99757.03;;;18.48;38.02
4410;BME280;2218;51.408;7.208;2022-12-07T00:39:01;99759.66;;;18.48;38.20
4410;BME280;2218;51.408;7.208;2022-12-07T00:41:29;99754.50;;;18.46;37.94
4410;BME280;2218;51.408;7.208;2022-12-07T00:43:57;99756.31;;;18.46;38.00
4410;BME280;2218;51.408;7.208;2022-12-07T00:46:25;99756.31;;;18.46;38.22
4410;BME280;2218;51.408;7.208;2022-12-07T00:48:53;99747.56;;;18.45;38.01
4410;BME280;2218;51.408;7.208;2022-12-07T00:51:23;99752.06;;;18.43;37.80
4410;BME280;2218;51.408;7.208;2022-12-07T00:53:50;99746.81;;;18.43;38.13
4410;BME280;2218;51.408;7.208;2022-12-07T00:56:23;99739.88;;;18.42;38.40
4410;BME280;2218;51.408;7.208;2022-12-07T00:58:52;99735.44;;;18.43;38.38
4410;BME280;2218;51.408;7.208;2022-12-07T01:01:19;99747.88;;;18.41;38.06
4410;BME280;2218;51.408;7.208;2022-12-07T01:03:46;99745.31;;;18.39;38.31
4410;BME280;2218;51.408;7.208;2022-12-07T01:06:15;99741.84;;;18.39;38.60
4410;BME280;2218;51.408;7.208;2022-12-07T01:08:43;99737.53;;;18.38;37.75
4410;BME280;2218;51.408;7.208;2022-12-07T01:11:15;99742.78;;;18.38;38.55
4410;BME280;2218;51.408;7.208;2022-12-07T01:13:44;99741.13;;;18.37;38.38
4410;BME280;2218;51.408;7.208;2022-12-07T01:16:14;99736.81;;;18.36;38.20
4410;BME280;2218;51.408;7.208;2022-12-07T01:18:45;99738.59;;;18.35;38.12
4410;BME280;2218;51.408;7.208;2022-12-07T01:21:15;99740.34;;;18.34;38.43
4410;BME280;2218;51.408;7.208;2022-12-07T01:23:43;99742.97;;;18.34;38.25
4410;BME280;2218;51.408;7.208;2022-12-07T01:26:13;99738.66;;;18.33;38.43
4410;BME280;2218;51.408;7.208;2022-12-07T01:28:42;99744.03;;;18.32;38.86
4410;BME280;2218;51.408;7.208;2022-12-07T01:31:14;99738.78;;;18.32;38.49
4410;BME280;2218;51.408;7.208;2022-12-07T01:33:44;99739.72;;;18.31;38.32
4410;BME280;2218;51.408;7.208;2022-12-07T01:36:15;99738.88;;;18.30;38.42
4410;BME280;2218;51.408;7.208;2022-12-07T01:38:43;99738.88;;;18.30;38.73
4410;BME280;2218;51.408;7.208;2022-12-07T01:41:10;99738.97;;;18.29;38.37
4410;BME280;2218;51.408;7.208;2022-12-07T01:44:15;99740.75;;;18.28;38.78
4410;BME280;2218;51.408;7.208;2022-12-07T01:46:45;99746.97;;;18.27;38.38
4410;BME280;2218;51.408;7.208;2022-12-07T01:49:18;99752.22;;;18.27;38.59
4410;BME280;2218;51.408;7.208;2022-12-07T01:51:51;99740.03;;;18.26;38.65
4410;BME280;2218;51.408;7.208;2022-12-07T01:54:20;99738.34;;;18.25;38.45
4410;BME280;2218;51.408;7.208;2022-12-07T01:56:51;99736.63;;;18.24;38.62
4410;BME280;2218;51.408;7.208;2022-12-07T01:59:24;99741.88;;;18.24;38.66
4410;BME280;2218;51.408;7.208;2022-12-07T02:01:53;99740.22;;;18.23;38.62
4410;BME280;2218;51.408;7.208;2022-12-07T02:04:22;99738.41;;;18.24;38.87
4410;BME280;2218;51.408;7.208;2022-12-07T02:06:50;99738.53;;;18.22;38.79
4410;BME280;2218;51.408;7.208;2022-12-07T02:09:18;99732.44;;;18.22;38.67
4410;BME280;2218;51.408;7.208;2022-12-07T02:11:45;99726.31;;;18.21;39.08
4410;BME280;2218;51.408;7.208;2022-12-07T02:14:12;99727.28;;;18.20;38.54
4410;BME280;2218;51.408;7.208;2022-12-07T02:16:54;99731.66;;;18.20;38.83
4410;BME280;2218;51.408;7.208;2022-12-07T02:20:03;99718.50;;;18.20;38.55
4410;BME280;2218;51.408;7.208;2022-12-07T02:26:06;99727.91;;;18.24;38.73
4410;BME280;2218;51.408;7.208;2022-12-07T02:29:11;99718.13;;;18.26;38.71
4410;BME280;2218;51.408;7.208;2022-12-07T02:31:46;99726.66;;;18.29;38.50
4410;BME280;2218;51.408;7.208;2022-12-07T02:34:25;99731.00;;;18.30;38.45
4410;BME280;2218;51.408;7.208;2022-12-07T02:37:00;99736.16;;;18.32;38.67
4410;BME280;2218;51.408;7.208;2022-12-07T02:39:39;99732.47;;;18.34;38.81
4410;BME280;2218;51.408;7.208;2022-12-07T02:42:14;99732.47;;;18.34;38.78
4410;BME280;2218;51.408;7.208;2022-12-07T02:44:46;99731.53;;;18.36;38.50
4410;BME280;2218;51.408;7.208;2022-12-07T02:47:17;99730.59;;;18.37;38.54
4410;BME280;2218;51.408;7.208;2022-12-07T02:49:46;99734.91;;;18.38;38.69
4410;BME280;2218;51.408;7.208;2022-12-07T02:52:12;99733.09;;;18.38;38.44
4410;BME280;2218;51.408;7.208;2022-12-07T02:54:39;99734.78;;;18.39;38.52
4410;BME280;2218;51.408;7.208;2022-12-07T02:57:26;99734.78;;;18.39;38.48
4410;BME280;2218;51.408;7.208;2022-12-07T03:00:04;99732.09;;;18.41;38.49
4410;BME280;2218;51.408;7.208;2022-12-07T03:02:46;99732.91;;;18.41;38.28
4410;BME280;2218;51.408;7.208;2022-12-07T03:05:44;99733.75;;;18.42;38.69
4410;BME280;2218;51.408;7.208;2022-12-07T03:08:25;99736.41;;;18.42;38.30
4410;BME280;2218;51.408;7.208;2022-12-07T03:11:00;99732.81;;;18.43;38.20
4410;BME280;2218;51.408;7.208;2022-12-07T03:13:35;99731.03;;;18.43;38.69
4410;BME280;2218;51.408;7.208;2022-12-07T03:16:13;99736.28;;;18.43;38.67
4410;BME280;2218;51.408;7.208;2022-12-07T03:18:48;99735.44;;;18.43;38.50
4410;BME280;2218;51.408;7.208;2022-12-07T03:21:21;99737.97;;;18.44;38.36
4410;BME280;2218;51.408;7.208;2022-12-07T03:23:54;99737.13;;;18.44;38.42
4410;BME280;2218;51.408;7.208;2022-12-07T03:26:31;99733.53;;;18.45;38.47
4410;BME280;2218;51.408;7.208;2022-12-07T03:29:05;99730.91;;;18.45;38.46
4410;BME280;2218;51.408;7.208;2022-12-07T03:31:41;99734.41;;;18.45;38.41
4410;BME280;2218;51.408;7.208;2022-12-07T03:34:15;99732.69;;;18.44;38.51
4410;BME280;2218;51.408;7.208;2022-12-07T03:36:48;99726.53;;;18.45;38.32
4410;BME280;2218;51.408;7.208;2022-12-07T03:39:24;99730.00;;;18.46;38.51
4410;BME280;2218;51.408;7.208;2022-12-07T03:41:54;99726.41;;;18.47;38.40
4410;BME280;2218;51.408;7.208;2022-12-07T03:44:23;99719.47;;;18.46;38.42
4410;BME280;2218;51.408;7.208;2022-12-07T03:47:01;99722.81;;;18.48;38.53
4410;BME280;2218;51.408;7.208;2022-12-07T03:49:42;99725.56;;;18.46;38.31
4410;BME280;2218;51.408;7.208;2022-12-07T03:52:18;99723.78;;;18.47;38.49
4410;BME280;2218;51.408;7.208;2022-12-07T03:54:56;99726.41;;;18.47;38.59
4410;BME280;2218;51.408;7.208;2022-12-07T03:57:27;99725.47;;;18.48;38.42
4410;BME280;2218;51.408;7.208;2022-12-07T03:59:56;99725.47;;;18.48;38.32
4410;BME280;2218;51.408;7.208;2022-12-07T04:02:27;99722.00;;;18.47;38.40
4410;BME280;2218;51.408;7.208;2022-12-07T04:04:56;99725.47;;;18.48;38.34
4410;BME280;2218;51.408;7.208;2022-12-07T04:07:23;99729.78;;;18.49;38.55
4410;BME280;2218;51.408;7.208;2022-12-07T04:09:50;99729.78;;;18.49;38.22
4410;BME280;2218;51.408;7.208;2022-12-07T04:12:17;99728.84;;;18.50;38.45
4410;BME280;2218;51.408;7.208;2022-12-07T04:14:44;99725.34;;;18.49;38.40
4410;BME280;2218;51.408;7.208;2022-12-07T04:17:11;99724.50;;;18.49;38.36
4410;BME280;2218;51.408;7.208;2022-12-07T04:19:39;99727.13;;;18.49;38.58
4410;BME280;2218;51.408;7.208;2022-12-07T04:22:07;99724.50;;;18.49;38.46
4410;BME280;2218;51.408;7.208;2022-12-07T04:24:34;99716.63;;;18.49;38.47
4410;BME280;2218;51.408;7.208;2022-12-07T04:27:02;99711.34;;;18.49;38.32
4410;BME280;2218;51.408;7.208;2022-12-07T04:29:29;99719.25;;;18.49;38.21
4410;BME280;2218;51.408;7.208;2022-12-07T04:31:56;99723.59;;;18.50;38.63
4410;BME280;2218;51.408;7.208;2022-12-07T04:34:23;99709.56;;;18.49;38.48
4410;BME280;2218;51.408;7.208;2022-12-07T04:36:51;99717.38;;;18.51;38.14
4410;BME280;2218;51.408;7.208;2022-12-07T04:39:23;99712.09;;;18.51;38.23
4410;BME280;2218;51.408;7.208;2022-12-07T04:41:50;99711.28;;;18.50;38.38
4410;BME280;2218;51.408;7.208;2022-12-07T04:44:18;99720.00;;;18.51;38.25
4410;BME280;2218;51.408;7.208;2022-12-07T04:46:45;99721.81;;;18.50;38.25
4410;BME280;2218;51.408;7.208;2022-12-07T04:49:13;99716.53;;;18.50;38.34
4410;BME280;2218;51.408;7.208;2022-12-07T04:51:42;99719.06;;;18.52;38.37
4410;BME280;2218;51.408;7.208;2022-12-07T04:54:11;99721.69;;;18.52;38.47
4410;BME280;2218;51.408;7.208;2022-12-07T04:56:38;99716.53;;;18.50;38.47
4410;BME280;2218;51.408;7.208;2022-12-07T04:59:06;99712.09;;;18.51;38.25
4410;BME280;2218;51.408;7.208;2022-12-07T05:01:33;99722.63;;;18.51;38.19
4410;BME280;2218;51.408;7.208;2022-12-07T05:04:00;99727.91;;;18.51;38.49
4410;BME280;2218;51.408;7.208;2022-12-07T05:06:27;99726.94;;;18.52;38.45
4410;BME280;2218;51.408;7.208;2022-12-07T05:08:54;99723.47;;;18.51;38.31
4410;BME280;2218;51.408;7.208;2022-12-07T05:11:22;99726.84;;;18.53;37.97
4410;BME280;2218;51.408;7.208;2022-12-07T05:14:12;99726.84;;;18.53;38.37
4410;BME280;2218;51.408;7.208;2022-12-07T05:16:40;99720.63;;;18.54;38.39
4410;BME280;2218;51.408;7.208;2022-12-07T05:19:08;99726.53;;;18.58;37.90
4410;BME280;2218;51.408;7.208;2022-12-07T05:21:36;99720.13;;;18.62;38.13
4410;BME280;2218;51.408;7.208;2022-12-07T05:24:05;99726.03;;;18.66;38.11
4410;BME280;2218;51.408;7.208;2022-12-07T05:26:33;99724.25;;;18.66;37.96
4410;BME280;2218;51.408;7.208;2022-12-07T05:29:00;99719.75;;;18.68;38.26
4410;BME280;2218;51.408;7.208;2022-12-07T05:31:27;99728.09;;;18.75;37.93
4410;BME280;2218;51.408;7.208;2022-12-07T05:33:54;99721.03;;;18.75;38.04
4410;BME280;2218;51.408;7.208;2022-12-07T05:36:21;99722.50;;;18.79;37.70
4410;BME280;2218;51.408;7.208;2022-12-07T05:38:48;99722.50;;;18.79;37.93
4410;BME280;2218;51.408;7.208;2022-12-07T05:41:18;99718.94;;;18.80;38.08
4410;BME280;2218;51.408;7.208;2022-12-07T05:44:05;99721.47;;;18.82;37.72
4410;BME280;2218;51.408;7.208;2022-12-07T05:46:32;99719.78;;;18.81;37.95
4410;BME280;2218;51.408;7.208;2022-12-07T05:49:00;99718.72;;;18.83;37.62
4410;BME280;2218;51.408;7.208;2022-12-07T05:51:28;99713.25;;;18.87;37.68
4410;BME280;2218;51.408;7.208;2022-12-07T05:53:55;99721.88;;;18.89;37.51
4410;BME280;2218;51.408;7.208;2022-12-07T05:56:22;99712.41;;;18.86;37.45
4410;BME280;2218;51.408;7.208;2022-12-07T05:58:49;99709.66;;;18.88;37.59
4410;BME280;2218;51.408;7.208;2022-12-07T06:01:35;99708.63;;;18.90;37.71
4410;BME280;2218;51.408;7.208;2022-12-07T06:04:02;99704.94;;;18.93;37.75
4410;BME280;2218;51.408;7.208;2022-12-07T06:06:29;99697.03;;;18.93;37.79
4410;BME280;2218;51.408;7.208;2022-12-07T06:08:56;99703.97;;;18.94;37.35
4410;BME280;2218;51.408;7.208;2022-12-07T06:11:23;99718.09;;;18.93;37.39
4410;BME280;2218;51.408;7.208;2022-12-07T06:14:07;99712.66;;;18.96;37.29
4410;BME280;2218;51.408;7.208;2022-12-07T06:16:36;99716.22;;;18.95;37.46
4410;BME280;2218;51.408;7.208;2022-12-07T06:19:03;99716.22;;;18.95;37.58
4410;BME280;2218;51.408;7.208;2022-12-07T06:21:30;99723.19;;;18.96;37.35
4410;BME280;2218;51.408;7.208;2022-12-07T06:23:57;99714.13;;;19.00;37.09
4410;BME280;2218;51.408;7.208;2022-12-07T06:26:24;99721.16;;;18.99;37.65
4410;BME280;2218;51.408;7.208;2022-12-07T06:28:51;99711.56;;;18.98;37.36
4410;BME280;2218;51.408;7.208;2022-12-07T06:31:17;99714.97;;;19.00;37.31
4410;BME280;2218;51.408;7.208;2022-12-07T06:33:46;99716.66;;;19.01;37.39
4410;BME280;2218;51.408;7.208;2022-12-07T06:36:13;99718.44;;;19.01;37.41
4410;BME280;2218;51.408;7.208;2022-12-07T06:38:40;99723.47;;;19.04;37.24
4410;BME280;2218;51.408;7.208;2022-12-07T06:41:07;99724.31;;;19.04;37.32
4410;BME280;2218;51.408;7.208;2022-12-07T06:43:34;99718.22;;;19.04;37.47
4410;BME280;2218;51.408;7.208;2022-12-07T06:46:01;99720.84;;;19.04;37.23
4410;BME280;2218;51.408;7.208;2022-12-07T06:48:28;99721.69;;;19.04;37.38
4410;BME280;2218;51.408;7.208;2022-12-07T06:50:56;99724.13;;;19.07;37.05
4410;BME280;2218;51.408;7.208;2022-12-07T06:53:23;99708.63;;;19.03;37.35
4410;BME280;2218;51.408;7.208;2022-12-07T06:55:50;99718.13;;;19.05;37.55
4410;BME280;2218;51.408;7.208;2022-12-07T06:58:18;99711.78;;;19.08;37.22
4410;BME280;2218;51.408;7.208;2022-12-07T07:00:45;99713.47;;;19.09;37.61
4410;BME280;2218;51.408;7.208;2022-12-07T07:03:14;99714.22;;;19.11;37.40
4410;BME280;2218;51.408;7.208;2022-12-07T07:05:41;99713.28;;;19.12;37.48
4410;BME280;2218;51.408;7.208;2022-12-07T07:08:10;99710.75;;;19.10;37.42
4410;BME280;2218;51.408;7.208;2022-12-07T07:10:38;99708.00;;;19.12;37.25
4410;BME280;2218;51.408;7.208;2022-12-07T07:13:05;99711.59;;;19.11;37.27
4410;BME280;2218;51.408;7.208;2022-12-07T07:15:33;99708.84;;;19.13;37.40
4410;BME280;2218;51.408;7.208;2022-12-07T07:18:00;99713.16;;;19.14;37.42
4410;BME280;2218;51.408;7.208;2022-12-07T07:20:29;99713.06;;;19.15;36.76
4410;BME280;2218;51.408;7.208;2022-12-07T07:22:56;99712.13;;;19.16;37.55
4410;BME280;2218;51.408;7.208;2022-12-07T07:25:24;99713.06;;;19.15;37.26
4410;BME280;2218;51.408;7.208;2022-12-07T07:27:51;99709.50;;;19.16;37.60
4410;BME280;2218;51.408;7.208;2022-12-07T07:30:18;99708.41;;;19.19;37.48
4410;BME280;2218;51.408;7.208;2022-12-07T07:32:45;99716.22;;;19.20;37.39
4410;BME280;2218;51.408;7.208;2022-12-07T07:35:12;99718.13;;;19.18;37.40
4410;BME280;2218;51.408;7.208;2022-12-07T07:37:40;99723.38;;;19.18;37.38
4410;BME280;2218;51.408;7.208;2022-12-07T07:40:08;99718.44;;;19.26;37.28
4410;BME280;2218;51.408;7.208;2022-12-07T07:42:36;99710.63;;;19.37;37.14
4410;BME280;2218;51.408;7.208;2022-12-07T07:45:05;99716.31;;;19.44;37.20
4410;BME280;2218;51.408;7.208;2022-12-07T07:47:32;99710.63;;;19.50;37.25
4410;BME280;2218;51.408;7.208;2022-12-07T07:49:58;99719.78;;;19.57;36.86
4410;BME280;2218;51.408;7.208;2022-12-07T07:52:26;99721.28;;;19.61;37.00
4410;BME280;2218;51.408;7.208;2022-12-07T07:54:53;99719.16;;;19.67;36.70
4410;BME280;2218;51.408;7.208;2022-12-07T07:57:20;99721.69;;;19.68;36.79
4410;BME280;2218;51.408;7.208;2022-12-07T07:59:48;99716.31;;;19.70;36.82
4410;BME280;2218;51.408;7.208;2022-12-07T08:02:18;99721.47;;;19.71;36.92
4410;BME280;2218;51.408;7.208;2022-12-07T08:04:46;99726.75;;;19.71;36.97
4410;BME280;2218;51.408;7.208;2022-12-07T08:07:14;99717.88;;;19.72;36.98
4410;BME280;2218;51.408;7.208;2022-12-07T08:09:41;99722.00;;;19.76;36.79
4410;BME280;2218;51.408;7.208;2022-12-07T08:12:08;99718.63;;;19.74;36.92
4410;BME280;2218;51.408;7.208;2022-12-07T08:14:35;99721.03;;;19.77;36.72
4410;BME280;2218;51.408;7.208;2022-12-07T08:17:04;99727.78;;;19.81;36.82
4410;BME280;2218;51.408;7.208;2022-12-07T08:19:31;99729.47;;;19.82;36.63
4410;BME280;2218;51.408;7.208;2022-12-07T08:21:57;99720.72;;;19.82;36.55
4410;BME280;2218;51.408;7.208;2022-12-07T08:24:25;99727.56;;;19.84;36.69
4410;BME280;2218;51.408;7.208;2022-12-07T08:26:52;99729.25;;;19.85;36.64
4410;BME280;2218;51.408;7.208;2022-12-07T08:29:19;99733.56;;;19.86;36.61
4410;BME280;2218;51.408;7.208;2022-12-07T08:31:46;99733.44;;;19.88;36.84
4410;BME280;2218;51.408;7.208;2022-12-07T08:34:14;99732.41;;;19.91;36.82
4410;BME280;2218;51.408;7.208;2022-12-07T08:36:41;99727.13;;;19.91;36.56
4410;BME280;2218;51.408;7.208;2022-12-07T08:39:08;99729.66;;;19.92;36.68
4410;BME280;2218;51.408;7.208;2022-12-07T08:41:35;99723.09;;;19.98;36.86
4410;BME280;2218;51.408;7.208;2022-12-07T08:44:03;99724.22;;;20.06;36.64
4410;BME280;2218;51.408;7.208;2022-12-07T08:46:34;99731.81;;;20.11;36.74
4410;BME280;2218;51.408;7.208;2022-12-07T08:49:08;99735.16;;;20.13;36.80
4410;BME280;2218;51.408;7.208;2022-12-07T08:51:38;99730.31;;;20.20;36.67
4410;BME280;2218;51.408;7.208;2022-12-07T08:54:11;99735.06;;;20.14;36.75
4410;BME280;2218;51.408;7.208;2022-12-07T08:56:41;99730.84;;;20.12;36.82
4410;BME280;2218;51.408;7.208;2022-12-07T08:59:08;99729.56;;;20.18;36.81
4410;BME280;2218;51.408;7.208;2022-12-07T09:01:35;99730.41;;;20.18;36.97
4410;BME280;2218;51.408;7.208;2022-12-07T09:04:02;99731.97;;;20.21;36.84
4410;BME280;2218;51.408;7.208;2022-12-07T09:06:29;99731.22;;;20.19;36.72
4410;BME280;2218;51.408;7.208;2022-12-07T09:09:00;99724.78;;;20.23;36.46
4410;BME280;2218;51.408;7.208;2022-12-07T09:11:29;99731.88;;;20.22;36.76
4410;BME280;2218;51.408;7.208;2022-12-07T09:13:56;99729.56;;;20.18;36.58
4410;BME280;2218;51.408;7.208;2022-12-07T09:16:23;99736.50;;;20.19;36.60
4410;BME280;2218;51.408;7.208;2022-12-07T09:18:50;99737.59;;;20.16;36.40
4410;BME280;2218;51.408;7.208;2022-12-07T09:21:17;99738.94;;;20.22;36.46
4410;BME280;2218;51.408;7.208;2022-12-07T09:23:43;99736.31;;;20.22;36.45
4410;BME280;2218;51.408;7.208;2022-12-07T09:26:12;99740.53;;;20.24;36.35
4410;BME280;2218;51.408;7.208;2022-12-07T09:28:39;99739.78;;;20.22;36.35
4410;BME280;2218;51.408;7.208;2022-12-07T09:31:06;99738.47;;;20.28;36.25
4410;BME280;2218;51.408;7.208;2022-12-07T09:33:33;99736.59;;;20.30;36.25
4410;BME280;2218;51.408;7.208;2022-12-07T09:36:00;99732.03;;;20.32;36.37
4410;BME280;2218;51.408;7.208;2022-12-07T09:38:28;99734.78;;;20.30;36.61
4410;BME280;2218;51.408;7.208;2022-12-07T09:40:56;99739.81;;;20.33;36.20
4410;BME280;2218;51.408;7.208;2022-12-07T09:43:26;99739.00;;;20.33;36.24
4410;BME280;2218;51.408;7.208;2022-12-07T09:45:55;99739.00;;;20.33;36.36
4410;BME280;2218;51.408;7.208;2022-12-07T09:48:30;99736.97;;;20.36;36.28
4410;BME280;2218;51.408;7.208;2022-12-07T09:51:00;99729.06;;;20.36;36.34
4410;BME280;2218;51.408;7.208;2022-12-07T09:53:33;99728.09;;;20.37;36.27
4410;BME280;2218;51.408;7.208;2022-12-07T09:56:02;99721.84;;;20.38;36.27
4410;BME280;2218;51.408;7.208;2022-12-07T09:58:32;99723.56;;;20.39;36.33
4410;BME280;2218;51.408;7.208;2022-12-07T10:01:10;99723.06;;;20.34;36.40
4410;BME280;2218;51.408;7.208;2022-12-07T10:03:53;99714.66;;;20.29;36.57
4410;BME280;2218;51.408;7.208;2022-12-07T10:06:21;99717.16;;;20.31;36.19
4410;BME280;2218;51.408;7.208;2022-12-07T10:08:48;99714.66;;;20.29;36.32
4410;BME280;2218;51.408;7.208;2022-12-07T10:11:15;99729.50;;;20.30;36.27
4410;BME280;2218;51.408;7.208;2022-12-07T10:13:47;99731.66;;;20.25;36.18
4410;BME280;2218;51.408;7.208;2022-12-07T10:16:37;99731.66;;;20.25;36.25
4410;BME280;2218;51.408;7.208;2022-12-07T10:19:25;99723.94;;;20.22;36.14
4410;BME280;2218;51.408;7.208;2022-12-07T10:22:16;99723.94;;;20.22;36.18
4410;BME280;2218;51.408;7.208;2022-12-07T10:24:47;99719.63;;;20.21;36.14
4410;BME280;2218;51.408;7.208;2022-12-07T10:27:20;99726.81;;;20.19;36.01
4410;BME280;2218;51.408;7.208;2022-12-07T10:29:51;99717.94;;;20.20;35.88
4410;BME280;2218;51.408;7.208;2022-12-07T10:32:31;99717.94;;;20.20;35.96
4410;BME280;2218;51.408;7.208;2022-12-07T10:35:22;99722.16;;;20.23;36.29
4410;BME280;2218;51.408;7.208;2022-12-07T10:37:51;99711.38;;;20.26;36.08
4410;BME280;2218;51.408;7.208;2022-12-07T10:40:29;99711.72;;;20.21;36.24
4410;BME280;2218;51.408;7.208;2022-12-07T10:43:08;99705.47;;;20.22;36.06
4410;BME280;2218;51.408;7.208;2022-12-07T10:46:22;99705.59;;;20.21;36.23
4410;BME280;2218;51.408;7.208;2022-12-07T10:49:04;99713.38;;;20.22;36.15
4410;BME280;2218;51.408;7.208;2022-12-07T10:51:43;99702.13;;;20.20;36.24
4410;BME280;2218;51.408;7.208;2022-12-07T10:54:25;99701.38;;;20.18;36.30
4410;BME280;2218;51.408;7.208;2022-12-07T10:57:10;99694.28;;;20.19;36.30
4410;BME280;2218;51.408;7.208;2022-12-07T11:00:00;99695.16;;;20.19;36.28
4410;BME280;2218;51.408;7.208;2022-12-07T11:03:03;99700.44;;;20.19;36.29
4410;BME280;2218;51.408;7.208;2022-12-07T11:05:39;99692.53;;;20.19;36.47
4410;BME280;2218;51.408;7.208;2022-12-07T11:08:22;99693.69;;;20.15;36.33
4410;BME280;2218;51.408;7.208;2022-12-07T11:10:59;99690.94;;;20.17;36.47
4410;BME280;2218;51.408;7.208;2022-12-07T11:13:39;99679.53;;;20.16;36.62
4410;BME280;2218;51.408;7.208;2022-12-07T11:16:43;99683.97;;;20.16;36.51
4410;BME280;2218;51.408;7.208;2022-12-07T11:19:30;99685.88;;;20.13;36.52
4410;BME280;2218;51.408;7.208;2022-12-07T11:22:06;99684.19;;;20.12;36.22
4410;BME280;2218;51.408;7.208;2022-12-07T11:24:48;99675.94;;;20.17;36.53
4410;BME280;2218;51.408;7.208;2022-12-07T11:27:24;99673.19;;;20.19;36.63
4410;BME280;2218;51.408;7.208;2022-12-07T11:30:14;99668.31;;;20.25;36.70
4410;BME280;2218;51.408;7.208;2022-12-07T11:33:12;99662.78;;;20.28;36.72
4410;BME280;2218;51.408;7.208;2022-12-07T11:35:56;99648.88;;;20.26;36.73
4410;BME280;2218;51.408;7.208;2022-12-07T11:38:43;99662.28;;;20.23;36.80
4410;BME280;2218;51.408;7.208;2022-12-07T11:41:13;99647.41;;;20.22;36.62
4410;BME280;2218;51.408;7.208;2022-12-07T11:43:54;99642.97;;;20.23;36.53
4410;BME280;2218;51.408;7.208;2022-12-07T11:46:25;99640.25;;;20.24;36.44
4410;BME280;2218;51.408;7.208;2022-12-07T11:49:02;99640.97;;;20.26;36.91
4410;BME280;2218;51.408;7.208;2022-12-07T11:51:39;99645.28;;;20.27;36.15
4410;BME280;2218;51.408;7.208;2022-12-07T11:54:15;99640.97;;;20.26;36.43
4410;BME280;2218;51.408;7.208;2022-12-07T11:56:47;99634.72;;;20.27;36.21
4410;BME280;2218;51.408;7.208;2022-12-07T11:59:23;99639.28;;;20.25;36.21
4410;BME280;2218;51.408;7.208;2022-12-07T12:01:58;99639.03;;;20.28;35.53
4410;BME280;2218;51.408;7.208;2022-12-07T12:04:47;99652.22;;;20.28;36.13
4410;BME280;2218;51.408;7.208;2022-12-07T12:07:22;99649.50;;;20.30;36.13
4410;BME280;2218;51.408;7.208;2022-12-07T12:09:53;99640.84;;;20.28;35.97
4410;BME280;2218;51.408;7.208;2022-12-07T12:12:55;99641.69;;;20.28;35.93
4410;BME280;2218;51.408;7.208;2022-12-07T12:15:43;99634.63;;;20.29;35.87
4410;BME280;2218;51.408;7.208;2022-12-07T12:18:51;99647.81;;;20.29;35.87
4410;BME280;2218;51.408;7.208;2022-12-07T12:21:26;99632.81;;;20.29;35.77
4410;BME280;2218;51.408;7.208;2022-12-07T12:23:59;99635.47;;;20.29;35.76
4410;BME280;2218;51.408;7.208;2022-12-07T12:26:30;99630.91;;;20.31;35.71
4410;BME280;2218;51.408;7.208;2022-12-07T12:29:00;99626.59;;;20.30;35.58
4410;BME280;2218;51.408;7.208;2022-12-07T12:31:38;99623.94;;;20.30;35.71
4410;BME280;2218;51.408;7.208;2022-12-07T12:34:37;99625.63;;;20.31;36.06
4410;BME280;2218;51.408;7.208;2022-12-07T12:37:43;99627.31;;;20.32;35.67
4410;BME280;2218;51.408;7.208;2022-12-07T12:40:42;99607.16;;;20.31;35.68
4410;BME280;2218;51.408;7.208;2022-12-07T12:43:46;99606.31;;;20.31;35.43
4410;BME280;2218;51.408;7.208;2022-12-07T12:46:51;99610.63;;;20.32;35.81
4410;BME280;2218;51.408;7.208;2022-12-07T12:49:39;99604.38;;;20.33;35.83
4410;BME280;2218;51.408;7.208;2022-12-07T12:52:50;99601.66;;;20.34;35.97
4410;BME280;2218;51.408;7.208;2022-12-07T12:55:41;99600.69;;;20.35;35.41
4410;BME280;2218;51.408;7.208;2022-12-07T12:58:37;99605.84;;;20.37;35.76
4410;BME280;2218;51.408;7.208;2022-12-07T13:01:43;99604.28;;;20.34;35.88
4410;BME280;2218;51.408;7.208;2022-12-07T13:04:52;99597.22;;;20.35;35.97
4410;BME280;2218;51.408;7.208;2022-12-07T13:08:10;99599.00;;;20.34;36.11
4410;BME280;2218;51.408;7.208;2022-12-07T13:10:45;99595.63;;;20.32;35.92
4410;BME280;2218;51.408;7.208;2022-12-07T13:13:35;99602.59;;;20.33;36.10
4410;BME280;2218;51.408;7.208;2022-12-07T13:16:40;99600.06;;;20.32;36.07
4410;BME280;2218;51.408;7.208;2022-12-07T13:19:53;99595.88;;;20.29;36.17
4410;BME280;2218;51.408;7.208;2022-12-07T13:22:50;99600.19;;;20.30;36.23
4410;BME280;2218;51.408;7.208;2022-12-07T13:25:29;99595.88;;;20.29;36.08
4410;BME280;2218;51.408;7.208;2022-12-07T13:28:07;99582.69;;;20.29;36.26
4410;BME280;2218;51.408;7.208;2022-12-07T13:30:47;99586.25;;;20.28;36.21
4410;BME280;2218;51.408;7.208;2022-12-07T13:33:18;99583.63;;;20.28;36.26
4410;BME280;2218;51.408;7.208;2022-12-07T13:35:45;99577.50;;;20.28;36.17
4410;BME280;2218;51.408;7.208;2022-12-07T13:38:27;99577.63;;;20.26;36.32
4410;BME280;2218;51.408;7.208;2022-12-07T13:41:17;99575.00;;;20.26;36.17
4410;BME280;2218;51.408;7.208;2022-12-07T13:43:48;99568.03;;;20.25;36.21
4410;BME280;2218;51.408;7.208;2022-12-07T13:46:20;99559.38;;;20.23;35.89
4410;BME280;2218;51.408;7.208;2022-12-07T13:48:50;99554.09;;;20.23;36.35
4410;BME280;2218;51.408;7.208;2022-12-07T13:51:21;99566.38;;;20.24;36.28
4410;BME280;2218;51.408;7.208;2022-12-07T13:53:51;99555.06;;;20.22;36.36
4410;BME280;2218;51.408;7.208;2022-12-07T13:56:22;99549.66;;;20.24;36.46
4410;BME280;2218;51.408;7.208;2022-12-07T13:58:51;99547.03;;;20.24;36.35
4410;BME280;2218;51.408;7.208;2022-12-07T14:01:20;99541.88;;;20.22;36.44